Map

Track Data

SID SEASON NUMBER BASIN SUBBASIN NAME ISO_TIME NATURE LAT LON WMO_WIND WMO_PRES WMO_AGENCY TRACK_TYPE DIST2LAND LANDFALL IFLAG USA_AGENCY USA_ATCF_ID USA_LAT USA_LON USA_RECORD USA_STATUS USA_WIND USA_PRES USA_SSHS USA_R34_NE USA_R34_SE USA_R34_SW USA_R34_NW USA_R50_NE USA_R50_SE USA_R50_SW USA_R50_NW USA_R64_NE USA_R64_SE USA_R64_SW USA_R64_NW USA_POCI USA_ROCI USA_RMW USA_EYE TOKYO_LAT TOKYO_LON TOKYO_GRADE TOKYO_WIND TOKYO_PRES TOKYO_R50_DIR TOKYO_R50_LONG TOKYO_R50_SHORT TOKYO_R30_DIR TOKYO_R30_LONG TOKYO_R30_SHORT TOKYO_LAND CMA_LAT CMA_LON CMA_CAT CMA_WIND CMA_PRES HKO_LAT HKO_LON HKO_CAT HKO_WIND HKO_PRES NEWDELHI_LAT NEWDELHI_LON NEWDELHI_GRADE NEWDELHI_WIND NEWDELHI_PRES NEWDELHI_CI NEWDELHI_DP NEWDELHI_POCI REUNION_LAT REUNION_LON REUNION_TYPE REUNION_WIND REUNION_PRES REUNION_TNUM REUNION_CI REUNION_RMW REUNION_R34_NE REUNION_R34_SE REUNION_R34_SW REUNION_R34_NW REUNION_R50_NE REUNION_R50_SE REUNION_R50_SW REUNION_R50_NW REUNION_R64_NE REUNION_R64_SE REUNION_R64_SW REUNION_R64_NW BOM_LAT BOM_LON BOM_TYPE BOM_WIND BOM_PRES BOM_TNUM BOM_CI BOM_RMW BOM_R34_NE BOM_R34_SE BOM_R34_SW BOM_R34_NW BOM_R50_NE BOM_R50_SE BOM_R50_SW BOM_R50_NW BOM_R64_NE BOM_R64_SE BOM_R64_SW BOM_R64_NW BOM_ROCI BOM_POCI BOM_EYE BOM_POS_METHOD BOM_PRES_METHOD NADI_LAT NADI_LON NADI_CAT NADI_WIND NADI_PRES WELLINGTON_LAT WELLINGTON_LON WELLINGTON_WIND WELLINGTON_PRES DS824_LAT DS824_LON DS824_STAGE DS824_WIND DS824_PRES TD9636_LAT TD9636_LON TD9636_STAGE TD9636_WIND TD9636_PRES TD9635_LAT TD9635_LON TD9635_WIND TD9635_PRES TD9635_ROCI NEUMANN_LAT NEUMANN_LON NEUMANN_CLASS NEUMANN_WIND NEUMANN_PRES MLC_LAT MLC_LON MLC_CLASS MLC_WIND MLC_PRES USA_GUST BOM_GUST BOM_GUST_PER REUNION_GUST REUNION_GUST_PER USA_SEAHGT USA_SEARAD_NE USA_SEARAD_SE USA_SEARAD_SW USA_SEARAD_NW STORM_SPEED STORM_DIR
1901228N17115 1901 24 WP MM NOT_NAMED 1901-08-15 16:00:00 NR 16.5000 115.300 main 473 473 __________O___ -1 16.5000 115.300 2 1 0
1901228N17115 1901 24 WP MM NOT_NAMED 1901-08-15 18:00:00 NR 16.5219 115.274 main 473 473 __________P___ -1 16.5219 115.274 2 1 312
1901228N17115 1901 24 WP MM NOT_NAMED 1901-08-15 21:00:00 NR 16.5652 115.225 main 485 485 __________P___ -1 16.5652 115.225 2 2 316
1901228N17115 1901 24 WP MM NOT_NAMED 1901-08-16 00:00:00 NR 16.6357 115.154 main 485 495 __________P___ -1 16.6357 115.154 2 3 317
1901228N17115 1901 24 WP MM NOT_NAMED 1901-08-16 03:00:00 NR 16.7496 115.046 main 507 509 __________P___ -1 16.7496 115.046 2 3 318
1901228N17115 1901 24 WP MM NOT_NAMED 1901-08-16 04:00:00 NR 16.8000 115.000 main 509 509 __________O___ -1 16.8000 115.000 2 5 319
1901228N17115 1901 24 WP MM NOT_NAMED 1901-08-16 06:00:00 NR 16.9211 114.890 main 510 480 __________P___ -1 16.9211 114.890 2 5 319
1901228N17115 1901 24 WP MM NOT_NAMED 1901-08-16 09:00:00 NR 17.1406 114.694 main 480 443 __________P___ -1 17.1406 114.694 2 6 320
1901228N17115 1901 24 WP MM NOT_NAMED 1901-08-16 12:00:00 NR 17.3834 114.478 main 443 413 __________P___ -1 17.3834 114.478 2 6 320
1901228N17115 1901 24 WP MM NOT_NAMED 1901-08-16 15:00:00 NR 17.6244 114.266 main 413 398 __________P___ -1 17.6244 114.266 2 6 320
1901228N17115 1901 24 WP MM NOT_NAMED 1901-08-16 16:00:00 NR 17.7000 114.200 main 398 383 __________O___ -1 17.7000 114.200 3 5 321
1901228N17115 1901 24 WP MM NOT_NAMED 1901-08-16 18:00:00 NR 17.8201 114.099 main 383 362 __________P___ -1 17.8201 114.099 3 4 322
1901228N17115 1901 24 WP MM NOT_NAMED 1901-08-16 21:00:00 NR 17.9875 113.960 main 362 333 __________P___ -1 17.9875 113.960 3 4 321
1901228N17115 1901 24 WP MM NOT_NAMED 1901-08-17 00:00:00 NR 18.1536 113.820 main 333 319 __________P___ -1 18.1536 113.820 3 5 320
1901228N17115 1901 24 WP MM NOT_NAMED 1901-08-17 03:00:00 NR 18.3340 113.661 main 319 304 __________P___ -1 18.3340 113.661 3 5 320
1901228N17115 1901 24 WP MM NOT_NAMED 1901-08-17 04:00:00 NR 18.4000 113.600 main 304 285 __________O___ -1 18.4000 113.600 4 6 320
1901228N17115 1901 24 WP MM NOT_NAMED 1901-08-17 06:00:00 NR 18.5521 113.467 main 285 247 __________P___ -1 18.5521 113.467 4 6 320
1901228N17115 1901 24 WP MM NOT_NAMED 1901-08-17 09:00:00 NR 18.7992 113.242 main 247 217 __________P___ -1 18.7992 113.242 4 7 318
1901228N17115 1901 24 WP MM NOT_NAMED 1901-08-17 12:00:00 NR 19.0581 112.987 main 217 181 __________P___ -1 19.0581 112.987 4 7 315
1901228N17115 1901 24 WP MM NOT_NAMED 1901-08-17 15:00:00 NR 19.3162 112.702 main 181 169 __________P___ -1 19.3162 112.702 4 8 313
1901228N17115 1901 24 WP MM NOT_NAMED 1901-08-17 16:00:00 NR 19.4000 112.600 main 169 146 __________O___ -1 19.4000 112.600 4 8 311
1901228N17115 1901 24 WP MM NOT_NAMED 1901-08-17 18:00:00 NR 19.5714 112.392 main 146 117 __________P___ -1 19.5714 112.392 4 8 310
1901228N17115 1901 24 WP MM NOT_NAMED 1901-08-17 21:00:00 NR 19.8226 112.055 main 117 84 __________P___ -1 19.8226 112.055 4 8 306
1901228N17115 1901 24 WP MM NOT_NAMED 1901-08-18 00:00:00 NR 20.0528 111.697 main 86 53 __________P___ -1 20.0528 111.697 4 8 302
1901228N17115 1901 24 WP MM NOT_NAMED 1901-08-18 03:00:00 NR 20.2463 111.325 main 53 53 __________P___ -1 20.2463 111.325 4 8 298
1901228N17115 1901 24 WP MM NOT_NAMED 1901-08-18 04:00:00 NR 20.3000 111.200 main 53 45 __________O___ -1 20.3000 111.200 4 8 291
1901228N17115 1901 24 WP MM NOT_NAMED 1901-08-18 06:00:00 NR 20.3816 110.950 main 45 10 __________P___ -1 20.3816 110.950 4 7 286
1901228N17115 1901 24 WP MM NOT_NAMED 1901-08-18 09:00:00 NR 20.4661 110.569 main 10 0 __________P___ -1 20.4661 110.569 4 7 281
1901228N17115 1901 24 WP MM NOT_NAMED 1901-08-18 12:00:00 NR 20.5246 110.189 main 0 0 __________P___ -1 20.5246 110.189 4 7 279
1901228N17115 1901 24 WP MM NOT_NAMED 1901-08-18 15:00:00 NR 20.5790 109.819 main 0 0 __________P___ -1 20.5790 109.819 4 7 279
1901228N17115 1901 24 WP MM NOT_NAMED 1901-08-18 16:00:00 NR 20.6000 109.700 main 10 10 __________O___ -1 20.6000 109.700 4 7 287
1901228N17115 1901 24 WP MM NOT_NAMED 1901-08-18 18:00:00 NR 20.6764 109.475 main 23 23 __________P___ -1 20.6764 109.475 4 7 291
1901228N17115 1901 24 WP MM NOT_NAMED 1901-08-18 21:00:00 NR 20.7979 109.149 main 62 59 __________P___ -1 20.7979 109.149 4 6 291
1901228N17115 1901 24 WP MM NOT_NAMED 1901-08-19 00:00:00 NR 20.9082 108.831 main 69 63 __________P___ -1 20.9082 108.831 4 6 287
1901228N17115 1901 24 WP MM NOT_NAMED 1901-08-19 03:00:00 NR 20.9854 108.509 main 63 59 __________P___ -1 20.9854 108.509 4 6 283
1901228N17115 1901 24 WP MM NOT_NAMED 1901-08-19 04:00:00 NR 21.0000 108.400 main 59 54 __________O___ -1 21.0000 108.400 4 6 273
1901228N17115 1901 24 WP MM NOT_NAMED 1901-08-19 06:00:00 NR 21.0034 108.175 main 54 39 __________P___ -1 21.0034 108.175 4 6 267
1901228N17115 1901 24 WP MM NOT_NAMED 1901-08-19 09:00:00 NR 20.9708 107.831 main 39 15 __________P___ -1 20.9708 107.831 4 7 262
1901228N17115 1901 24 WP MM NOT_NAMED 1901-08-19 12:00:00 NR 20.9069 107.480 main 15 0 __________P___ -1 20.9069 107.480 4 7 258
1901228N17115 1901 24 WP MM NOT_NAMED 1901-08-19 15:00:00 NR 20.8273 107.121 main 15 15 __________P___ -1 20.8273 107.121 4 7 257
1901228N17115 1901 24 WP MM NOT_NAMED 1901-08-19 16:00:00 NR 20.8000 107.000 main 15 0 __________O___ -1 20.8000 107.000 7 7 257
1901228N17115 1901 24 WP MM NOT_NAMED 1901-08-19 18:00:00 NR 20.7469 106.755 main 0 0 __________P___ -1 20.7469 106.755 7 7 257
1901228N17115 1901 24 WP MM NOT_NAMED 1901-08-19 21:00:00 NR 20.6705 106.383 main 0 0 __________P___ -1 20.6705 106.383 7 7 258
1901228N17115 1901 24 WP MM NOT_NAMED 1901-08-20 00:00:00 NR 20.5968 106.006 main 0 0 __________P___ -1 20.5968 106.006 7 7 258
1901228N17115 1901 24 WP MM NOT_NAMED 1901-08-20 03:00:00 NR 20.5242 105.627 main 0 0 __________P___ -1 20.5242 105.627 7 7 258
1901228N17115 1901 24 WP MM NOT_NAMED 1901-08-20 04:00:00 NR 20.5000 105.500 main 0 __________O___ -1 20.5000 105.500 7 7 258

Digital Typhoon Data and Search

About IBTrACS Database

This database is a web-friendly format of International Best Track Archive for Climate Stewardship (IBTrACS), a global best track data archive curated by NOAA dating back to 1842.

Updated: 2021-12-01